Terminal Aerodrome Forecast
Issued by NWS Tulsa, OK

Home | Current Version | Previous Version | Text Only | Print | Product List | Glossary On
Versions: 1 2 3 4 5 6 7 8 9 10 11 12 13 14 15
000
FTUS44 KTSA 172320
TAFFSM
TAF
KFSM 172320Z 1800/1824 24005KT P6SM SKC
     FM180600 VRB03KT P6SM SCT040 BKN120
      TEMPO 1810/1814 5SM -RA BR BKN040
     FM181400 08004KT 4SM BR OVC015=

USA.gov is the U.S. government's official web portal to all federal, state and local government web resources and services.